sensor_id;sensor_type;location;lat;lon;timestamp;pressure;altitude;pressure_sealevel;temperature;humidity
60099;BME280;62818;49.394;8.686;2023-04-26T00:00:33;100518.44;;;7.10;91.05
60099;BME280;62818;49.394;8.686;2023-04-26T00:01:34;100526.06;;;6.96;93.14
60099;BME280;62818;49.394;8.686;2023-04-26T00:02:34;100519.72;;;7.06;92.63
60099;BME280;62818;49.394;8.686;2023-04-26T00:03:35;100522.53;;;7.05;91.01
60099;BME280;62818;49.394;8.686;2023-04-26T00:04:39;100520.44;;;6.81;91.32
60099;BME280;62818;49.394;8.686;2023-04-26T00:05:40;100515.38;;;6.70;91.65
60099;BME280;62818;49.394;8.686;2023-04-26T00:06:41;100515.75;;;7.02;91.14
60099;BME280;62818;49.394;8.686;2023-04-26T00:07:42;100514.47;;;7.06;89.58
60099;BME280;62818;49.394;8.686;2023-04-26T00:08:42;100515.97;;;6.91;89.59
60099;BME280;62818;49.394;8.686;2023-04-26T00:09:43;100514.81;;;6.76;90.21
60099;BME280;62818;49.394;8.686;2023-04-26T00:10:43;100508.88;;;6.92;91.41
60099;BME280;62818;49.394;8.686;2023-04-26T00:11:44;100510.75;;;6.99;90.27
60099;BME280;62818;49.394;8.686;2023-04-26T00:12:45;100518.41;;;6.75;91.12
60099;BME280;62818;49.394;8.686;2023-04-26T00:13:45;100522.97;;;6.46;93.24
60099;BME280;62818;49.394;8.686;2023-04-26T00:14:45;100522.41;;;6.52;94.22
60099;BME280;62818;49.394;8.686;2023-04-26T00:15:46;100525.19;;;6.50;93.69
60099;BME280;62818;49.394;8.686;2023-04-26T00:16:46;100532.97;;;6.52;94.37
60099;BME280;62818;49.394;8.686;2023-04-26T00:17:47;100522.31;;;6.71;94.08
60099;BME280;62818;49.394;8.686;2023-04-26T00:18:48;100524.81;;;6.90;93.43
60099;BME280;62818;49.394;8.686;2023-04-26T00:19:49;100527.34;;;7.09;91.90
60099;BME280;62818;49.394;8.686;2023-04-26T00:20:50;100530.91;;;7.18;90.06
60099;BME280;62818;49.394;8.686;2023-04-26T00:21:51;100525.75;;;7.16;87.85
60099;BME280;62818;49.394;8.686;2023-04-26T00:22:51;100527.09;;;7.03;87.79
60099;BME280;62818;49.394;8.686;2023-04-26T00:23:52;100526.34;;;6.93;87.63
60099;BME280;62818;49.394;8.686;2023-04-26T00:24:52;100526.38;;;6.83;88.54
60099;BME280;62818;49.394;8.686;2023-04-26T00:25:53;100529.03;;;6.83;89.07
60099;BME280;62818;49.394;8.686;2023-04-26T00:28:20;100521.06;;;6.93;90.76
60099;BME280;62818;49.394;8.686;2023-04-26T00:29:35;100535.47;;;6.98;90.76
60099;BME280;62818;49.394;8.686;2023-04-26T00:30:44;100517.69;;;7.00;90.73
60099;BME280;62818;49.394;8.686;2023-04-26T00:31:48;100530.78;;;6.92;91.41
60099;BME280;62818;49.394;8.686;2023-04-26T00:32:48;100530.47;;;6.95;92.42
60099;BME280;62818;49.394;8.686;2023-04-26T00:33:50;100522.13;;;7.00;92.94
60099;BME280;62818;49.394;8.686;2023-04-26T00:34:50;100526.50;;;7.09;92.33
60099;BME280;62818;49.394;8.686;2023-04-26T00:35:51;100529.16;;;7.09;92.13
60099;BME280;62818;49.394;8.686;2023-04-26T00:36:52;100527.47;;;6.90;92.56
60099;BME280;62818;49.394;8.686;2023-04-26T00:37:52;100531.38;;;6.86;92.67
60099;BME280;62818;49.394;8.686;2023-04-26T00:38:53;100524.06;;;6.80;93.66
60099;BME280;62818;49.394;8.686;2023-04-26T00:39:53;100524.31;;;6.59;94.72
60099;BME280;62818;49.394;8.686;2023-04-26T00:40:53;100523.66;;;6.75;95.57
60099;BME280;62818;49.394;8.686;2023-04-26T00:41:54;100526.72;;;6.98;94.31
60099;BME280;62818;49.394;8.686;2023-04-26T00:42:58;100522.59;;;7.13;94.46
60099;BME280;62818;49.394;8.686;2023-04-26T00:43:59;100516.09;;;7.07;93.64
60099;BME280;62818;49.394;8.686;2023-04-26T00:45:00;100519.34;;;7.01;94.45
60099;BME280;62818;49.394;8.686;2023-04-26T00:46:00;100523.50;;;7.04;94.28
60099;BME280;62818;49.394;8.686;2023-04-26T00:47:01;100531.50;;;6.67;96.13
60099;BME280;62818;49.394;8.686;2023-04-26T00:48:02;100531.28;;;6.51;97.53
60099;BME280;62818;49.394;8.686;2023-04-26T00:49:02;100526.88;;;6.42;99.51
60099;BME280;62818;49.394;8.686;2023-04-26T00:50:06;100526.78;;;6.61;99.69
60099;BME280;62818;49.394;8.686;2023-04-26T00:51:07;100531.56;;;6.48;99.39
60099;BME280;62818;49.394;8.686;2023-04-26T00:52:09;100530.78;;;6.38;98.71
60099;BME280;62818;49.394;8.686;2023-04-26T00:53:11;100525.81;;;6.62;98.74
60099;BME280;62818;49.394;8.686;2023-04-26T00:54:14;100527.81;;;6.78;97.50
60099;BME280;62818;49.394;8.686;2023-04-26T00:55:15;100530.59;;;6.76;95.69
60099;BME280;62818;49.394;8.686;2023-04-26T00:56:17;100521.66;;;6.87;94.65
60099;BME280;62818;49.394;8.686;2023-04-26T00:57:20;100519.94;;;6.95;94.08
60099;BME280;62818;49.394;8.686;2023-04-26T00:58:21;100527.19;;;6.66;92.91
60099;BME280;62818;49.394;8.686;2023-04-26T00:59:22;100528.44;;;6.35;94.23
60099;BME280;62818;49.394;8.686;2023-04-26T01:00:22;100531.13;;;6.52;94.20
60099;BME280;62818;49.394;8.686;2023-04-26T01:01:23;100532.47;;;6.29;95.95
60099;BME280;62818;49.394;8.686;2023-04-26T01:02:24;100530.38;;;6.33;95.68
60099;BME280;62818;49.394;8.686;2023-04-26T01:03:25;100522.03;;;6.74;95.36
60099;BME280;62818;49.394;8.686;2023-04-26T01:04:27;100526.25;;;6.85;94.74
60099;BME280;62818;49.394;8.686;2023-04-26T01:05:29;100526.78;;;6.61;93.77
60099;BME280;62818;49.394;8.686;2023-04-26T01:06:33;100523.28;;;6.70;93.27
60099;BME280;62818;49.394;8.686;2023-04-26T01:07:35;100523.19;;;6.62;93.15
60099;BME280;62818;49.394;8.686;2023-04-26T01:08:38;100531.78;;;6.64;93.95
60099;BME280;62818;49.394;8.686;2023-04-26T01:09:39;100520.31;;;6.83;93.23
60099;BME280;62818;49.394;8.686;2023-04-26T01:10:39;100527.38;;;6.55;94.00
60099;BME280;62818;49.394;8.686;2023-04-26T01:11:41;100530.53;;;6.31;94.86
60099;BME280;62818;49.394;8.686;2023-04-26T01:12:42;100524.94;;;6.71;94.64
60099;BME280;62818;49.394;8.686;2023-04-26T01:13:43;100522.91;;;6.65;93.44
60099;BME280;62818;49.394;8.686;2023-04-26T01:14:45;100526.50;;;6.64;93.89
60099;BME280;62818;49.394;8.686;2023-04-26T01:15:47;100528.09;;;6.74;93.68
60099;BME280;62818;49.394;8.686;2023-04-26T01:16:48;100538.03;;;6.26;93.87
60099;BME280;62818;49.394;8.686;2023-04-26T01:17:49;100530.53;;;6.31;95.51
60099;BME280;62818;49.394;8.686;2023-04-26T01:18:52;100530.31;;;6.52;95.33
60099;BME280;62818;49.394;8.686;2023-04-26T01:19:53;100527.47;;;6.36;94.76
60099;BME280;62818;49.394;8.686;2023-04-26T01:20:53;100533.31;;;6.30;95.20
60099;BME280;62818;49.394;8.686;2023-04-26T01:21:55;100526.75;;;5.97;96.04
60099;BME280;62818;49.394;8.686;2023-04-26T01:22:56;100530.19;;;6.17;96.50
60099;BME280;62818;49.394;8.686;2023-04-26T01:23:56;100521.97;;;6.29;96.39
60099;BME280;62818;49.394;8.686;2023-04-26T01:24:58;100526.09;;;6.32;96.22
60099;BME280;62818;49.394;8.686;2023-04-26T01:26:00;100531.06;;;6.35;95.53
60099;BME280;62818;49.394;8.686;2023-04-26T01:27:01;100528.75;;;6.22;96.77
60099;BME280;62818;49.394;8.686;2023-04-26T01:28:03;100532.34;;;6.31;95.72
60099;BME280;62818;49.394;8.686;2023-04-26T01:29:20;100533.81;;;6.43;95.80
60099;BME280;62818;49.394;8.686;2023-04-26T01:30:23;100529.25;;;5.79;97.00
60099;BME280;62818;49.394;8.686;2023-04-26T01:31:23;100535.91;;;5.64;99.40
60099;BME280;62818;49.394;8.686;2023-04-26T01:32:24;100530.38;;;5.86;99.70
60099;BME280;62818;49.394;8.686;2023-04-26T01:33:25;100525.53;;;5.72;99.94
60099;BME280;62818;49.394;8.686;2023-04-26T01:34:25;100528.44;;;5.79;99.94
60099;BME280;62818;49.394;8.686;2023-04-26T01:35:26;100518.44;;;6.02;98.80
60099;BME280;62818;49.394;8.686;2023-04-26T01:36:26;100525.34;;;6.12;97.52
60099;BME280;62818;49.394;8.686;2023-04-26T01:37:27;100527.59;;;5.97;97.45
60099;BME280;62818;49.394;8.686;2023-04-26T01:38:27;100530.91;;;5.80;98.92
60099;BME280;62818;49.394;8.686;2023-04-26T01:39:27;100526.63;;;5.98;97.93
60099;BME280;62818;49.394;8.686;2023-04-26T01:40:28;100535.63;;;5.96;97.76
60099;BME280;62818;49.394;8.686;2023-04-26T01:41:29;100523.00;;;6.09;97.87
60099;BME280;62818;49.394;8.686;2023-04-26T01:42:29;100527.66;;;6.25;96.61
60099;BME280;62818;49.394;8.686;2023-04-26T01:43:30;100524.53;;;6.02;96.26
60099;BME280;62818;49.394;8.686;2023-04-26T01:44:30;100529.09;;;6.00;97.39
60099;BME280;62818;49.394;8.686;2023-04-26T01:45:31;100525.09;;;6.06;96.93
60099;BME280;62818;49.394;8.686;2023-04-26T01:46:31;100520.81;;;5.76;96.67
60099;BME280;62818;49.394;8.686;2023-04-26T01:47:32;100532.34;;;5.56;98.47
60099;BME280;62818;49.394;8.686;2023-04-26T01:48:32;100523.47;;;5.76;98.62
60099;BME280;62818;49.394;8.686;2023-04-26T01:49:33;100528.72;;;5.66;98.19
60099;BME280;62818;49.394;8.686;2023-04-26T01:50:33;100526.81;;;5.68;98.70
60099;BME280;62818;49.394;8.686;2023-04-26T01:51:34;100524.56;;;5.73;98.34
60099;BME280;62818;49.394;8.686;2023-04-26T01:52:35;100531.50;;;5.74;97.91
60099;BME280;62818;49.394;8.686;2023-04-26T01:53:35;100525.69;;;5.61;98.31
60099;BME280;62818;49.394;8.686;2023-04-26T01:54:36;100530.38;;;5.58;98.50
60099;BME280;62818;49.394;8.686;2023-04-26T01:55:36;100523.34;;;5.58;98.85
60099;BME280;62818;49.394;8.686;2023-04-26T01:56:37;100526.22;;;5.93;98.34
60099;BME280;62818;49.394;8.686;2023-04-26T01:57:37;100525.97;;;5.58;98.13
60099;BME280;62818;49.394;8.686;2023-04-26T01:58:38;100528.91;;;5.46;100.00
60099;BME280;62818;49.394;8.686;2023-04-26T01:59:38;100517.13;;;5.59;100.00
60099;BME280;62818;49.394;8.686;2023-04-26T02:00:39;100524.88;;;5.42;100.00
60099;BME280;62818;49.394;8.686;2023-04-26T02:01:43;100518.94;;;5.30;100.00
60099;BME280;62818;49.394;8.686;2023-04-26T02:02:43;100517.13;;;5.59;100.00
60099;BME280;62818;49.394;8.686;2023-04-26T02:03:44;100513.50;;;5.60;100.00
60099;BME280;62818;49.394;8.686;2023-04-26T02:04:45;100517.56;;;5.26;100.00
60099;BME280;62818;49.394;8.686;2023-04-26T02:05:45;100518.78;;;5.32;100.00
60099;BME280;62818;49.394;8.686;2023-04-26T02:06:46;100518.50;;;5.54;100.00
60099;BME280;62818;49.394;8.686;2023-04-26T02:07:46;100520.13;;;5.83;100.00
60099;BME280;62818;49.394;8.686;2023-04-26T02:08:47;100511.28;;;5.84;98.76
60099;BME280;62818;49.394;8.686;2023-04-26T02:09:48;100516.50;;;6.04;97.64
60099;BME280;62818;49.394;8.686;2023-04-26T02:10:49;100519.28;;;5.83;96.57
60099;BME280;62818;49.394;8.686;2023-04-26T02:11:49;100516.56;;;5.27;99.11
60099;BME280;62818;49.394;8.686;2023-04-26T02:12:50;100519.88;;;5.29;100.00
60099;BME280;62818;49.394;8.686;2023-04-26T02:13:50;100521.53;;;5.49;100.00
60099;BME280;62818;49.394;8.686;2023-04-26T02:14:50;100514.66;;;5.48;99.82
60099;BME280;62818;49.394;8.686;2023-04-26T02:15:51;100522.09;;;5.43;99.03
60099;BME280;62818;49.394;8.686;2023-04-26T02:16:52;100522.66;;;5.28;100.00
60099;BME280;62818;49.394;8.686;2023-04-26T02:17:52;100519.06;;;5.57;100.00
60099;BME280;62818;49.394;8.686;2023-04-26T02:18:54;100521.34;;;5.79;99.03
60099;BME280;62818;49.394;8.686;2023-04-26T02:19:55;100524.13;;;5.78;98.89
60099;BME280;62818;49.394;8.686;2023-04-26T02:20:56;100530.91;;;5.80;98.17
60099;BME280;62818;49.394;8.686;2023-04-26T02:21:57;100531.19;;;5.77;97.88
60099;BME280;62818;49.394;8.686;2023-04-26T02:22:57;100534.28;;;5.44;97.97
60099;BME280;62818;49.394;8.686;2023-04-26T02:23:58;100533.16;;;5.18;99.32
60099;BME280;62818;49.394;8.686;2023-04-26T02:24:58;100524.88;;;5.32;100.00
60099;BME280;62818;49.394;8.686;2023-04-26T02:25:59;100537.63;;;5.46;99.60
60099;BME280;62818;49.394;8.686;2023-04-26T02:27:00;100533.84;;;5.58;98.80
60099;BME280;62818;49.394;8.686;2023-04-26T02:28:03;100524.88;;;5.61;97.74
60099;BME280;62818;49.394;8.686;2023-04-26T02:29:04;100530.13;;;5.51;97.89
60099;BME280;62818;49.394;8.686;2023-04-26T02:30:05;100526.38;;;5.44;97.81
60099;BME280;62818;49.394;8.686;2023-04-26T02:31:07;100529.19;;;5.33;98.66
60099;BME280;62818;49.394;8.686;2023-04-26T02:32:07;100531.38;;;5.28;99.27
60099;BME280;62818;49.394;8.686;2023-04-26T02:33:08;100526.81;;;5.59;99.12
60099;BME280;62818;49.394;8.686;2023-04-26T02:34:08;100529.81;;;5.73;98.07
60099;BME280;62818;49.394;8.686;2023-04-26T02:35:09;100531.50;;;5.17;98.89
60099;BME280;62818;49.394;8.686;2023-04-26T02:36:10;100522.38;;;5.02;100.00
60099;BME280;62818;49.394;8.686;2023-04-26T02:37:10;100529.00;;;4.87;100.00
60099;BME280;62818;49.394;8.686;2023-04-26T02:38:11;100529.28;;;5.32;100.00
60099;BME280;62818;49.394;8.686;2023-04-26T02:39:11;100533.59;;;5.23;100.00
60099;BME280;62818;49.394;8.686;2023-04-26T02:40:12;100529.84;;;5.25;100.00
60099;BME280;62818;49.394;8.686;2023-04-26T02:41:13;100531.50;;;5.36;100.00
60099;BME280;62818;49.394;8.686;2023-04-26T02:42:13;100533.72;;;5.41;100.00
60099;BME280;62818;49.394;8.686;2023-04-26T02:43:13;100529.03;;;5.35;100.00
60099;BME280;62818;49.394;8.686;2023-04-26T02:44:14;100532.88;;;5.40;99.79
60099;BME280;62818;49.394;8.686;2023-04-26T02:45:14;100537.03;;;5.43;100.00
60099;BME280;62818;49.394;8.686;2023-04-26T02:46:15;100542.31;;;5.52;99.63
60099;BME280;62818;49.394;8.686;2023-04-26T02:47:16;100533.03;;;5.67;98.85
60099;BME280;62818;49.394;8.686;2023-04-26T02:48:20;100537.75;;;5.35;98.49
60099;BME280;62818;49.394;8.686;2023-04-26T02:49:20;100530.38;;;5.00;100.00
60099;BME280;62818;49.394;8.686;2023-04-26T02:50:21;100536.19;;;4.94;100.00
60099;BME280;62818;49.394;8.686;2023-04-26T02:51:21;100533.84;;;5.01;100.00
60099;BME280;62818;49.394;8.686;2023-04-26T02:52:22;100522.63;;;4.99;100.00
60099;BME280;62818;49.394;8.686;2023-04-26T02:53:22;100529.59;;;5.29;100.00
60099;BME280;62818;49.394;8.686;2023-04-26T02:54:23;100527.06;;;5.08;100.00
60099;BME280;62818;49.394;8.686;2023-04-26T02:55:23;100526.78;;;5.01;100.00
60099;BME280;62818;49.394;8.686;2023-04-26T02:56:24;100523.59;;;4.88;100.00
60099;BME280;62818;49.394;8.686;2023-04-26T02:57:25;100528.69;;;4.90;100.00
60099;BME280;62818;49.394;8.686;2023-04-26T02:58:26;100519.31;;;4.97;100.00
60099;BME280;62818;49.394;8.686;2023-04-26T02:59:26;100522.13;;;5.24;100.00
60099;BME280;62818;49.394;8.686;2023-04-26T03:00:27;100528.59;;;5.30;100.00
60099;BME280;62818;49.394;8.686;2023-04-26T03:01:27;100532.09;;;5.40;99.99
60099;BME280;62818;49.394;8.686;2023-04-26T03:02:28;100528.19;;;5.34;99.36
60099;BME280;62818;49.394;8.686;2023-04-26T03:03:28;100533.59;;;5.33;99.48
60099;BME280;62818;49.394;8.686;2023-04-26T03:04:32;100531.38;;;5.38;99.61
60099;BME280;62818;49.394;8.686;2023-04-26T03:05:35;100533.69;;;4.93;100.00
60099;BME280;62818;49.394;8.686;2023-04-26T03:06:36;100532.03;;;4.92;100.00
60099;BME280;62818;49.394;8.686;2023-04-26T03:07:36;100536.22;;;5.23;100.00
60099;BME280;62818;49.394;8.686;2023-04-26T03:08:37;100534.66;;;4.92;100.00
60099;BME280;62818;49.394;8.686;2023-04-26T03:09:37;100532.81;;;4.83;100.00
60099;BME280;62818;49.394;8.686;2023-04-26T03:10:38;100529.16;;;5.14;100.00
60099;BME280;62818;49.394;8.686;2023-04-26T03:11:38;100534.53;;;5.03;100.00
60099;BME280;62818;49.394;8.686;2023-04-26T03:12:39;100529.38;;;4.73;100.00
60099;BME280;62818;49.394;8.686;2023-04-26T03:13:39;100525.69;;;5.04;100.00
60099;BME280;62818;49.394;8.686;2023-04-26T03:14:40;100528.47;;;5.21;100.00
60099;BME280;62818;49.394;8.686;2023-04-26T03:15:44;100526.13;;;5.18;100.00
60099;BME280;62818;49.394;8.686;2023-04-26T03:16:45;100529.72;;;5.27;100.00
60099;BME280;62818;49.394;8.686;2023-04-26T03:17:47;100533.44;;;5.24;100.00
60099;BME280;62818;49.394;8.686;2023-04-26T03:18:48;100532.50;;;5.35;100.00
60099;BME280;62818;49.394;8.686;2023-04-26T03:19:49;100535.94;;;5.26;99.30
60099;BME280;62818;49.394;8.686;2023-04-26T03:20:49;100535.91;;;4.97;99.36
60099;BME280;62818;49.394;8.686;2023-04-26T03:21:50;100538.03;;;4.64;100.00
60099;BME280;62818;49.394;8.686;2023-04-26T03:22:50;100534.66;;;4.42;100.00
60099;BME280;62818;49.394;8.686;2023-04-26T03:23:51;100534.97;;;4.59;100.00
60099;BME280;62818;49.394;8.686;2023-04-26T03:24:52;100537.50;;;4.70;100.00
60099;BME280;62818;49.394;8.686;2023-04-26T03:25:52;100535.66;;;4.61;100.00
60099;BME280;62818;49.394;8.686;2023-04-26T03:26:53;100532.25;;;4.70;100.00
60099;BME280;62818;49.394;8.686;2023-04-26T03:27:53;100529.50;;;4.71;100.00
60099;BME280;62818;49.394;8.686;2023-04-26T03:28:55;100531.34;;;4.50;100.00
60099;BME280;62818;49.394;8.686;2023-04-26T03:29:56;100534.31;;;4.66;100.00
60099;BME280;62818;49.394;8.686;2023-04-26T03:30:56;100532.09;;;4.62;100.00
60099;BME280;62818;49.394;8.686;2023-04-26T03:31:57;100524.84;;;4.84;100.00
60099;BME280;62818;49.394;8.686;2023-04-26T03:32:57;100528.56;;;4.91;100.00
60099;BME280;62818;49.394;8.686;2023-04-26T03:33:58;100525.13;;;5.00;99.78
60099;BME280;62818;49.394;8.686;2023-04-26T03:34:58;100516.44;;;5.00;99.63
60099;BME280;62818;49.394;8.686;2023-04-26T03:35:58;100527.63;;;5.11;98.98
60099;BME280;62818;49.394;8.686;2023-04-26T03:37:00;100529.28;;;5.12;99.13
60099;BME280;62818;49.394;8.686;2023-04-26T03:38:01;100525.69;;;5.13;98.86
60099;BME280;62818;49.394;8.686;2023-04-26T03:39:01;100528.72;;;5.09;98.16
60099;BME280;62818;49.394;8.686;2023-04-26T03:40:03;100531.50;;;5.07;98.74
60099;BME280;62818;49.394;8.686;2023-04-26T03:41:07;100532.06;;;5.11;98.42
60099;BME280;62818;49.394;8.686;2023-04-26T03:42:07;100529.84;;;5.16;98.31
60099;BME280;62818;49.394;8.686;2023-04-26T03:43:08;100530.13;;;5.22;97.74
60099;BME280;62818;49.394;8.686;2023-04-26T03:44:08;100536.78;;;5.17;97.31
60099;BME280;62818;49.394;8.686;2023-04-26T03:45:09;100535.84;;;4.69;97.84
60099;BME280;62818;49.394;8.686;2023-04-26T03:46:10;100539.03;;;4.32;100.00
60099;BME280;62818;49.394;8.686;2023-04-26T03:47:10;100536.91;;;4.57;100.00
60099;BME280;62818;49.394;8.686;2023-04-26T03:48:11;100539.56;;;4.26;100.00
60099;BME280;62818;49.394;8.686;2023-04-26T03:49:11;100530.59;;;4.69;100.00
60099;BME280;62818;49.394;8.686;2023-04-26T03:50:12;100541.00;;;4.40;100.00
60099;BME280;62818;49.394;8.686;2023-04-26T03:51:12;100540.94;;;4.30;100.00
60099;BME280;62818;49.394;8.686;2023-04-26T03:52:13;100539.31;;;4.79;100.00
60099;BME280;62818;49.394;8.686;2023-04-26T03:53:13;100543.63;;;4.80;100.00
60099;BME280;62818;49.394;8.686;2023-04-26T03:54:14;100544.47;;;4.90;100.00
60099;BME280;62818;49.394;8.686;2023-04-26T03:55:14;100533.59;;;4.55;100.00
60099;BME280;62818;49.394;8.686;2023-04-26T03:56:15;100540.59;;;4.14;100.00
60099;BME280;62818;49.394;8.686;2023-04-26T03:57:16;100542.50;;;4.12;100.00
60099;BME280;62818;49.394;8.686;2023-04-26T03:58:16;100542.59;;;4.01;100.00
60099;BME280;62818;49.394;8.686;2023-04-26T03:59:17;100543.50;;;3.91;100.00
60099;BME280;62818;49.394;8.686;2023-04-26T04:00:17;100541.91;;;3.99;100.00
60099;BME280;62818;49.394;8.686;2023-04-26T04:01:17;100545.28;;;4.11;100.00
60099;BME280;62818;49.394;8.686;2023-04-26T04:02:19;100540.13;;;4.30;100.00
60099;BME280;62818;49.394;8.686;2023-04-26T04:03:20;100532.72;;;4.44;100.00
60099;BME280;62818;49.394;8.686;2023-04-26T04:04:20;100529.97;;;4.46;100.00
60099;BME280;62818;49.394;8.686;2023-04-26T04:05:21;100534.66;;;4.42;100.00
60099;BME280;62818;49.394;8.686;2023-04-26T04:06:21;100525.06;;;4.72;100.00
60099;BME280;62818;49.394;8.686;2023-04-26T04:07:22;100530.50;;;4.89;100.00
60099;BME280;62818;49.394;8.686;2023-04-26T04:08:23;100530.22;;;4.92;100.00
60099;BME280;62818;49.394;8.686;2023-04-26T04:09:23;100532.25;;;4.70;100.00
60099;BME280;62818;49.394;8.686;2023-04-26T04:10:24;100528.88;;;4.48;100.00
60099;BME280;62818;49.394;8.686;2023-04-26T04:11:24;100523.13;;;4.64;100.00
60099;BME280;62818;49.394;8.686;2023-04-26T04:12:25;100524.25;;;4.81;100.00
60099;BME280;62818;49.394;8.686;2023-04-26T04:13:26;100524.81;;;4.75;100.00
60099;BME280;62818;49.394;8.686;2023-04-26T04:14:26;100529.91;;;4.36;100.00
60099;BME280;62818;49.394;8.686;2023-04-26T04:15:27;100523.91;;;4.15;100.00
60099;BME280;62818;49.394;8.686;2023-04-26T04:16:27;100528.00;;;4.38;100.00
60099;BME280;62818;49.394;8.686;2023-04-26T04:17:28;100530.00;;;4.56;100.00
60099;BME280;62818;49.394;8.686;2023-04-26T04:18:28;100528.81;;;4.79;100.00
60099;BME280;62818;49.394;8.686;2023-04-26T04:19:28;100533.75;;;4.23;100.00
60099;BME280;62818;49.394;8.686;2023-04-26T04:20:29;100530.22;;;4.33;100.00
60099;BME280;62818;49.394;8.686;2023-04-26T04:21:30;100532.75;;;4.54;100.00
60099;BME280;62818;49.394;8.686;2023-04-26T04:22:31;100517.78;;;4.45;100.00
60099;BME280;62818;49.394;8.686;2023-04-26T04:23:31;100525.56;;;4.46;100.00
60099;BME280;62818;49.394;8.686;2023-04-26T04:24:32;100530.00;;;4.56;100.00
60099;BME280;62818;49.394;8.686;2023-04-26T04:25:33;100523.31;;;4.82;100.00
60099;BME280;62818;49.394;8.686;2023-04-26T04:26:33;100539.53;;;4.57;100.00
60099;BME280;62818;49.394;8.686;2023-04-26T04:27:35;100531.28;;;4.71;100.00
60099;BME280;62818;49.394;8.686;2023-04-26T04:28:38;100536.97;;;4.76;100.00
60099;BME280;62818;49.394;8.686;2023-04-26T04:29:40;100536.44;;;4.82;100.00
60099;BME280;62818;49.394;8.686;2023-04-26T04:30:41;100540.50;;;4.56;100.00
60099;BME280;62818;49.394;8.686;2023-04-26T04:31:43;100539.03;;;4.32;100.00
60099;BME280;62818;49.394;8.686;2023-04-26T04:32:43;100543.13;;;4.25;100.00
60099;BME280;62818;49.394;8.686;2023-04-26T04:33:44;100541.41;;;4.35;100.00
60099;BME280;62818;49.394;8.686;2023-04-26T04:34:44;100535.56;;;4.62;100.00
60099;BME280;62818;49.394;8.686;2023-04-26T04:35:45;100540.00;;;4.71;100.00
60099;BME280;62818;49.394;8.686;2023-04-26T04:36:45;100536.44;;;4.82;100.00
60099;BME280;62818;49.394;8.686;2023-04-26T04:37:46;100542.75;;;4.60;100.00
60099;BME280;62818;49.394;8.686;2023-04-26T04:38:49;100542.34;;;4.65;100.00
60099;BME280;62818;49.394;8.686;2023-04-26T04:39:50;100541.78;;;4.71;100.00
60099;BME280;62818;49.394;8.686;2023-04-26T04:40:51;100548.59;;;4.83;100.00
60099;BME280;62818;49.394;8.686;2023-04-26T04:41:52;100546.19;;;4.30;100.00
60099;BME280;62818;49.394;8.686;2023-04-26T04:42:53;100544.09;;;4.55;100.00
60099;BME280;62818;49.394;8.686;2023-04-26T04:43:54;100549.69;;;4.80;100.00
60099;BME280;62818;49.394;8.686;2023-04-26T04:44:55;100547.19;;;4.69;100.00
60099;BME280;62818;49.394;8.686;2023-04-26T04:45:56;100550.22;;;4.74;100.00
60099;BME280;62818;49.394;8.686;2023-04-26T04:46:57;100552.78;;;4.95;100.00
60099;BME280;62818;49.394;8.686;2023-04-26T04:47:58;100549.59;;;5.01;100.00
60099;BME280;62818;49.394;8.686;2023-04-26T04:48:58;100555.53;;;5.03;100.00
60099;BME280;62818;49.394;8.686;2023-04-26T04:49:59;100557.63;;;5.09;100.00
60099;BME280;62818;49.394;8.686;2023-04-26T04:50:59;100561.34;;;4.97;100.00
60099;BME280;62818;49.394;8.686;2023-04-26T04:52:01;100563.81;;;4.89;100.00
60099;BME280;62818;49.394;8.686;2023-04-26T04:53:01;100561.59;;;4.94;100.00
60099;BME280;62818;49.394;8.686;2023-04-26T04:54:13;100566.06;;;5.03;100.00
60099;BME280;62818;49.394;8.686;2023-04-26T04:55:15;100563.28;;;4.95;100.00
60099;BME280;62818;49.394;8.686;2023-04-26T04:56:16;100569.78;;;4.61;100.00
60099;BME280;62818;49.394;8.686;2023-04-26T04:57:17;100567.25;;;4.89;100.00
60099;BME280;62818;49.394;8.686;2023-04-26T04:58:20;100568.38;;;4.87;100.00
60099;BME280;62818;49.394;8.686;2023-04-26T04:59:21;100565.44;;;4.80;100.00
60099;BME280;62818;49.394;8.686;2023-04-26T05:00:22;100566.56;;;4.78;100.00
60099;BME280;62818;49.394;8.686;2023-04-26T05:01:23;100566.81;;;4.75;100.00
60099;BME280;62818;49.394;8.686;2023-04-26T05:02:23;100566.47;;;4.59;100.00
60099;BME280;62818;49.394;8.686;2023-04-26T05:03:24;100575.88;;;4.61;100.00
60099;BME280;62818;49.394;8.686;2023-04-26T05:04:25;100572.03;;;4.65;100.00
60099;BME280;62818;49.394;8.686;2023-04-26T05:05:25;100571.56;;;4.50;100.00
60099;BME280;62818;49.394;8.686;2023-04-26T05:06:26;100568.69;;;4.93;100.00
60099;BME280;62818;49.394;8.686;2023-04-26T05:07:27;100569.38;;;5.05;100.00
60099;BME280;62818;49.394;8.686;2023-04-26T05:08:27;100577.94;;;5.07;100.00
60099;BME280;62818;49.394;8.686;2023-04-26T05:09:28;100577.03;;;5.17;100.00
60099;BME280;62818;49.394;8.686;2023-04-26T05:10:28;100585.72;;;5.18;100.00
60099;BME280;62818;49.394;8.686;2023-04-26T05:11:29;100588.72;;;4.94;100.00
60099;BME280;62818;49.394;8.686;2023-04-26T05:12:30;100593.19;;;5.13;100.00
60099;BME280;62818;49.394;8.686;2023-04-26T05:13:30;100584.59;;;5.01;100.00
60099;BME280;62818;49.394;8.686;2023-04-26T05:14:31;100589.25;;;4.98;100.00
60099;BME280;62818;49.394;8.686;2023-04-26T05:15:31;100581.69;;;5.14;100.00
60099;BME280;62818;49.394;8.686;2023-04-26T05:16:32;100584.56;;;4.92;100.00
60099;BME280;62818;49.394;8.686;2023-04-26T05:17:32;100594.13;;;5.12;100.00
60099;BME280;62818;49.394;8.686;2023-04-26T05:18:33;100586.97;;;4.65;100.00
60099;BME280;62818;49.394;8.686;2023-04-26T05:19:33;100592.31;;;4.54;100.00
60099;BME280;62818;49.394;8.686;2023-04-26T05:20:34;100592.31;;;4.54;100.00
60099;BME280;62818;49.394;8.686;2023-04-26T05:21:34;100592.72;;;4.59;100.00
60099;BME280;62818;49.394;8.686;2023-04-26T05:22:35;100597.38;;;4.45;100.00